sensor_id;sensor_type;location;lat;lon;timestamp;P1;durP1;ratioP1;P2;durP2;ratioP2
17606;SDS011;8922;52.240;20.980;2022-09-13T00:01:07;12.40;;;7.73;;
17606;SDS011;8922;52.240;20.980;2022-09-13T00:03:35;8.53;;;7.37;;
17606;SDS011;8922;52.240;20.980;2022-09-13T00:06:09;7.73;;;6.80;;
17606;SDS011;8922;52.240;20.980;2022-09-13T00:08:38;9.17;;;7.80;;
17606;SDS011;8922;52.240;20.980;2022-09-13T00:11:05;13.77;;;7.87;;
17606;SDS011;8922;52.240;20.980;2022-09-13T00:13:32;8.27;;;7.30;;
17606;SDS011;8922;52.240;20.980;2022-09-13T00:15:59;10.20;;;7.93;;
17606;SDS011;8922;52.240;20.980;2022-09-13T00:18:28;9.53;;;7.43;;
17606;SDS011;8922;52.240;20.980;2022-09-13T00:21:04;8.97;;;7.80;;
17606;SDS011;8922;52.240;20.980;2022-09-13T00:23:32;11.63;;;7.80;;
17606;SDS011;8922;52.240;20.980;2022-09-13T00:26:03;9.90;;;7.90;;
17606;SDS011;8922;52.240;20.980;2022-09-13T00:28:31;11.53;;;8.27;;
17606;SDS011;8922;52.240;20.980;2022-09-13T00:30:59;10.23;;;7.83;;
17606;SDS011;8922;52.240;20.980;2022-09-13T00:33:26;12.60;;;8.23;;
17606;SDS011;8922;52.240;20.980;2022-09-13T00:35:53;9.93;;;7.63;;
17606;SDS011;8922;52.240;20.980;2022-09-13T00:38:21;12.50;;;8.03;;
17606;SDS011;8922;52.240;20.980;2022-09-13T00:40:48;9.17;;;7.37;;
17606;SDS011;8922;52.240;20.980;2022-09-13T00:43:15;10.00;;;7.70;;
17606;SDS011;8922;52.240;20.980;2022-09-13T00:45:44;11.13;;;8.70;;
17606;SDS011;8922;52.240;20.980;2022-09-13T00:48:14;10.83;;;7.97;;
17606;SDS011;8922;52.240;20.980;2022-09-13T00:50:46;9.80;;;7.30;;
17606;SDS011;8922;52.240;20.980;2022-09-13T00:53:17;9.80;;;7.57;;
17606;SDS011;8922;52.240;20.980;2022-09-13T00:55:51;10.83;;;7.67;;
17606;SDS011;8922;52.240;20.980;2022-09-13T00:58:23;8.13;;;7.33;;
17606;SDS011;8922;52.240;20.980;2022-09-13T01:00:54;9.43;;;7.43;;
17606;SDS011;8922;52.240;20.980;2022-09-13T01:03:23;9.50;;;8.00;;
17606;SDS011;8922;52.240;20.980;2022-09-13T01:05:52;12.10;;;8.70;;
17606;SDS011;8922;52.240;20.980;2022-09-13T01:08:22;9.70;;;8.27;;
17606;SDS011;8922;52.240;20.980;2022-09-13T01:10:51;9.90;;;8.40;;
17606;SDS011;8922;52.240;20.980;2022-09-13T01:13:22;8.80;;;7.83;;
17606;SDS011;8922;52.240;20.980;2022-09-13T01:15:51;9.17;;;7.57;;
17606;SDS011;8922;52.240;20.980;2022-09-13T01:18:18;9.07;;;8.03;;
17606;SDS011;8922;52.240;20.980;2022-09-13T01:20:49;8.73;;;7.47;;
17606;SDS011;8922;52.240;20.980;2022-09-13T01:23:43;8.17;;;7.37;;
17606;SDS011;8922;52.240;20.980;2022-09-13T01:26:43;10.20;;;8.23;;
17606;SDS011;8922;52.240;20.980;2022-09-13T01:29:44;10.40;;;6.97;;
17606;SDS011;8922;52.240;20.980;2022-09-13T01:35:45;10.23;;;7.70;;
17606;SDS011;8922;52.240;20.980;2022-09-13T01:38:26;8.77;;;7.50;;
17606;SDS011;8922;52.240;20.980;2022-09-13T01:41:16;9.00;;;7.70;;
17606;SDS011;8922;52.240;20.980;2022-09-13T01:43:55;8.50;;;7.60;;
17606;SDS011;8922;52.240;20.980;2022-09-13T01:46:31;8.93;;;8.03;;
17606;SDS011;8922;52.240;20.980;2022-09-13T01:49:06;9.97;;;8.13;;
17606;SDS011;8922;52.240;20.980;2022-09-13T01:51:44;10.93;;;8.70;;
17606;SDS011;8922;52.240;20.980;2022-09-13T01:54:18;10.47;;;8.53;;
17606;SDS011;8922;52.240;20.980;2022-09-13T01:56:53;10.20;;;8.50;;
17606;SDS011;8922;52.240;20.980;2022-09-13T01:59:28;9.70;;;8.70;;
17606;SDS011;8922;52.240;20.980;2022-09-13T02:02:03;10.07;;;8.57;;
17606;SDS011;8922;52.240;20.980;2022-09-13T02:04:36;11.23;;;8.47;;
17606;SDS011;8922;52.240;20.980;2022-09-13T02:07:08;10.67;;;8.97;;
17606;SDS011;8922;52.240;20.980;2022-09-13T02:09:39;10.83;;;8.73;;
17606;SDS011;8922;52.240;20.980;2022-09-13T02:12:09;11.37;;;8.60;;
17606;SDS011;8922;52.240;20.980;2022-09-13T02:14:40;13.50;;;9.40;;
17606;SDS011;8922;52.240;20.980;2022-09-13T02:17:10;11.23;;;8.50;;
17606;SDS011;8922;52.240;20.980;2022-09-13T02:19:40;8.80;;;7.90;;
17606;SDS011;8922;52.240;20.980;2022-09-13T02:22:17;11.20;;;8.27;;
17606;SDS011;8922;52.240;20.980;2022-09-13T02:24:47;11.27;;;8.80;;
17606;SDS011;8922;52.240;20.980;2022-09-13T02:27:22;14.57;;;8.83;;
17606;SDS011;8922;52.240;20.980;2022-09-13T02:29:52;11.73;;;9.47;;
17606;SDS011;8922;52.240;20.980;2022-09-13T02:32:23;10.33;;;8.90;;
17606;SDS011;8922;52.240;20.980;2022-09-13T02:34:56;11.27;;;9.30;;
17606;SDS011;8922;52.240;20.980;2022-09-13T02:37:28;12.17;;;8.60;;
17606;SDS011;8922;52.240;20.980;2022-09-13T02:40:01;11.13;;;8.50;;
17606;SDS011;8922;52.240;20.980;2022-09-13T02:42:33;12.37;;;9.13;;
17606;SDS011;8922;52.240;20.980;2022-09-13T02:45:06;12.30;;;10.20;;
17606;SDS011;8922;52.240;20.980;2022-09-13T02:47:37;15.17;;;9.87;;
17606;SDS011;8922;52.240;20.980;2022-09-13T02:50:18;12.63;;;10.20;;
17606;SDS011;8922;52.240;20.980;2022-09-13T02:53:00;11.17;;;9.40;;
17606;SDS011;8922;52.240;20.980;2022-09-13T02:55:37;11.27;;;10.00;;
17606;SDS011;8922;52.240;20.980;2022-09-13T02:58:11;11.27;;;9.53;;
17606;SDS011;8922;52.240;20.980;2022-09-13T03:00:45;12.27;;;10.03;;
17606;SDS011;8922;52.240;20.980;2022-09-13T03:03:13;11.27;;;9.10;;
17606;SDS011;8922;52.240;20.980;2022-09-13T03:05:41;12.87;;;9.53;;
17606;SDS011;8922;52.240;20.980;2022-09-13T03:08:11;14.67;;;9.57;;
17606;SDS011;8922;52.240;20.980;2022-09-13T03:10:43;13.90;;;9.40;;
17606;SDS011;8922;52.240;20.980;2022-09-13T03:13:35;14.23;;;10.83;;
17606;SDS011;8922;52.240;20.980;2022-09-13T03:16:27;11.50;;;9.17;;
17606;SDS011;8922;52.240;20.980;2022-09-13T03:19:08;12.10;;;9.20;;
17606;SDS011;8922;52.240;20.980;2022-09-13T03:21:55;10.87;;;8.60;;
17606;SDS011;8922;52.240;20.980;2022-09-13T03:24:41;9.90;;;8.33;;
17606;SDS011;8922;52.240;20.980;2022-09-13T03:27:17;9.97;;;8.97;;
17606;SDS011;8922;52.240;20.980;2022-09-13T03:29:52;13.63;;;9.23;;
17606;SDS011;8922;52.240;20.980;2022-09-13T03:32:25;11.40;;;9.50;;
17606;SDS011;8922;52.240;20.980;2022-09-13T03:34:58;11.30;;;9.73;;
17606;SDS011;8922;52.240;20.980;2022-09-13T03:37:39;10.43;;;9.07;;
17606;SDS011;8922;52.240;20.980;2022-09-13T03:40:15;9.60;;;8.47;;
17606;SDS011;8922;52.240;20.980;2022-09-13T03:42:49;13.27;;;8.40;;
17606;SDS011;8922;52.240;20.980;2022-09-13T03:45:21;9.30;;;8.00;;
17606;SDS011;8922;52.240;20.980;2022-09-13T03:47:52;11.00;;;8.13;;
17606;SDS011;8922;52.240;20.980;2022-09-13T03:50:21;13.23;;;9.03;;
17606;SDS011;8922;52.240;20.980;2022-09-13T03:52:51;9.43;;;8.30;;
17606;SDS011;8922;52.240;20.980;2022-09-13T03:55:24;11.00;;;8.83;;
17606;SDS011;8922;52.240;20.980;2022-09-13T03:57:52;11.07;;;8.53;;
17606;SDS011;8922;52.240;20.980;2022-09-13T04:00:19;10.63;;;8.40;;
17606;SDS011;8922;52.240;20.980;2022-09-13T04:02:46;12.80;;;9.17;;
17606;SDS011;8922;52.240;20.980;2022-09-13T04:05:13;10.57;;;8.73;;
17606;SDS011;8922;52.240;20.980;2022-09-13T04:07:39;9.60;;;8.60;;
17606;SDS011;8922;52.240;20.980;2022-09-13T04:10:07;11.77;;;9.40;;
17606;SDS011;8922;52.240;20.980;2022-09-13T04:12:35;11.67;;;8.80;;
17606;SDS011;8922;52.240;20.980;2022-09-13T04:15:02;11.13;;;9.23;;
17606;SDS011;8922;52.240;20.980;2022-09-13T04:17:30;13.07;;;9.83;;
17606;SDS011;8922;52.240;20.980;2022-09-13T04:19:56;11.93;;;9.67;;
17606;SDS011;8922;52.240;20.980;2022-09-13T04:22:23;10.57;;;8.47;;
17606;SDS011;8922;52.240;20.980;2022-09-13T04:24:50;11.70;;;9.43;;
17606;SDS011;8922;52.240;20.980;2022-09-13T04:27:17;11.47;;;9.50;;
17606;SDS011;8922;52.240;20.980;2022-09-13T04:29:45;12.13;;;10.83;;
17606;SDS011;8922;52.240;20.980;2022-09-13T04:32:12;11.93;;;8.80;;
17606;SDS011;8922;52.240;20.980;2022-09-13T04:34:39;11.60;;;10.00;;
17606;SDS011;8922;52.240;20.980;2022-09-13T04:37:05;12.33;;;9.57;;
17606;SDS011;8922;52.240;20.980;2022-09-13T04:39:33;11.80;;;9.30;;
17606;SDS011;8922;52.240;20.980;2022-09-13T04:42:00;12.80;;;9.20;;
17606;SDS011;8922;52.240;20.980;2022-09-13T04:44:27;12.20;;;10.10;;
17606;SDS011;8922;52.240;20.980;2022-09-13T04:46:55;13.00;;;9.70;;
17606;SDS011;8922;52.240;20.980;2022-09-13T04:49:22;12.10;;;9.80;;
17606;SDS011;8922;52.240;20.980;2022-09-13T04:51:49;11.80;;;8.63;;
17606;SDS011;8922;52.240;20.980;2022-09-13T04:54:16;12.70;;;10.13;;
17606;SDS011;8922;52.240;20.980;2022-09-13T04:56:43;10.97;;;9.17;;
17606;SDS011;8922;52.240;20.980;2022-09-13T04:59:11;11.67;;;9.50;;
17606;SDS011;8922;52.240;20.980;2022-09-13T05:01:38;11.70;;;9.80;;
17606;SDS011;8922;52.240;20.980;2022-09-13T05:04:07;12.67;;;9.63;;
17606;SDS011;8922;52.240;20.980;2022-09-13T05:06:35;18.03;;;10.43;;
17606;SDS011;8922;52.240;20.980;2022-09-13T05:09:02;13.70;;;9.67;;
17606;SDS011;8922;52.240;20.980;2022-09-13T05:11:29;13.77;;;9.77;;
17606;SDS011;8922;52.240;20.980;2022-09-13T05:13:58;13.37;;;9.50;;
17606;SDS011;8922;52.240;20.980;2022-09-13T05:16:26;13.83;;;9.70;;
17606;SDS011;8922;52.240;20.980;2022-09-13T05:18:54;13.57;;;10.47;;
17606;SDS011;8922;52.240;20.980;2022-09-13T05:21:24;12.03;;;9.40;;
17606;SDS011;8922;52.240;20.980;2022-09-13T05:23:52;15.37;;;9.67;;
17606;SDS011;8922;52.240;20.980;2022-09-13T05:26:20;12.60;;;9.30;;
17606;SDS011;8922;52.240;20.980;2022-09-13T05:28:48;16.50;;;10.17;;
17606;SDS011;8922;52.240;20.980;2022-09-13T05:31:15;13.20;;;9.93;;
17606;SDS011;8922;52.240;20.980;2022-09-13T05:33:44;13.63;;;10.07;;
17606;SDS011;8922;52.240;20.980;2022-09-13T05:36:13;13.57;;;9.60;;
17606;SDS011;8922;52.240;20.980;2022-09-13T05:38:41;16.37;;;10.27;;
17606;SDS011;8922;52.240;20.980;2022-09-13T05:41:08;12.90;;;9.90;;
17606;SDS011;8922;52.240;20.980;2022-09-13T05:43:35;13.50;;;9.67;;
17606;SDS011;8922;52.240;20.980;2022-09-13T05:46:03;16.23;;;9.83;;
17606;SDS011;8922;52.240;20.980;2022-09-13T05:48:32;17.27;;;11.60;;
17606;SDS011;8922;52.240;20.980;2022-09-13T05:51:03;15.10;;;10.30;;
17606;SDS011;8922;52.240;20.980;2022-09-13T05:53:34;17.67;;;11.90;;
17606;SDS011;8922;52.240;20.980;2022-09-13T05:56:03;16.40;;;13.80;;
17606;SDS011;8922;52.240;20.980;2022-09-13T05:58:30;17.77;;;14.80;;
17606;SDS011;8922;52.240;20.980;2022-09-13T06:00:57;18.73;;;16.50;;
17606;SDS011;8922;52.240;20.980;2022-09-13T06:03:24;18.77;;;14.97;;
17606;SDS011;8922;52.240;20.980;2022-09-13T06:05:53;18.03;;;15.37;;
17606;SDS011;8922;52.240;20.980;2022-09-13T06:08:20;16.83;;;12.47;;
17606;SDS011;8922;52.240;20.980;2022-09-13T06:10:52;15.70;;;12.10;;
17606;SDS011;8922;52.240;20.980;2022-09-13T06:13:21;15.43;;;11.47;;
17606;SDS011;8922;52.240;20.980;2022-09-13T06:15:48;19.13;;;14.03;;
17606;SDS011;8922;52.240;20.980;2022-09-13T06:18:15;21.73;;;15.20;;
17606;SDS011;8922;52.240;20.980;2022-09-13T06:20:42;20.23;;;14.07;;
17606;SDS011;8922;52.240;20.980;2022-09-13T06:23:09;12.50;;;10.73;;
17606;SDS011;8922;52.240;20.980;2022-09-13T06:25:36;9.87;;;8.87;;
17606;SDS011;8922;52.240;20.980;2022-09-13T06:28:03;11.93;;;9.17;;
17606;SDS011;8922;52.240;20.980;2022-09-13T06:30:31;10.13;;;8.57;;
17606;SDS011;8922;52.240;20.980;2022-09-13T06:32:58;9.13;;;8.23;;
17606;SDS011;8922;52.240;20.980;2022-09-13T06:35:25;9.57;;;8.00;;
17606;SDS011;8922;52.240;20.980;2022-09-13T06:37:53;10.00;;;8.83;;
17606;SDS011;8922;52.240;20.980;2022-09-13T06:40:20;10.03;;;7.97;;
17606;SDS011;8922;52.240;20.980;2022-09-13T06:42:47;12.03;;;8.97;;
17606;SDS011;8922;52.240;20.980;2022-09-13T06:45:14;8.63;;;7.77;;
17606;SDS011;8922;52.240;20.980;2022-09-13T06:47:43;11.23;;;8.37;;
17606;SDS011;8922;52.240;20.980;2022-09-13T06:50:10;13.73;;;8.70;;
17606;SDS011;8922;52.240;20.980;2022-09-13T06:52:37;8.70;;;7.80;;
17606;SDS011;8922;52.240;20.980;2022-09-13T06:55:04;13.10;;;9.07;;
17606;SDS011;8922;52.240;20.980;2022-09-13T06:57:32;15.10;;;8.17;;
17606;SDS011;8922;52.240;20.980;2022-09-13T06:59:58;13.23;;;8.77;;
17606;SDS011;8922;52.240;20.980;2022-09-13T07:02:25;10.93;;;8.80;;
17606;SDS011;8922;52.240;20.980;2022-09-13T07:04:54;12.53;;;8.90;;
17606;SDS011;8922;52.240;20.980;2022-09-13T07:07:20;11.37;;;9.57;;
17606;SDS011;8922;52.240;20.980;2022-09-13T07:09:47;13.70;;;10.17;;
17606;SDS011;8922;52.240;20.980;2022-09-13T07:12:14;10.90;;;9.07;;
17606;SDS011;8922;52.240;20.980;2022-09-13T07:14:40;11.17;;;9.17;;
17606;SDS011;8922;52.240;20.980;2022-09-13T07:17:07;9.97;;;8.83;;
17606;SDS011;8922;52.240;20.980;2022-09-13T07:19:34;10.33;;;8.87;;
17606;SDS011;8922;52.240;20.980;2022-09-13T07:22:02;11.90;;;9.33;;
17606;SDS011;8922;52.240;20.980;2022-09-13T07:24:29;11.63;;;9.00;;
17606;SDS011;8922;52.240;20.980;2022-09-13T07:26:56;10.30;;;8.87;;
17606;SDS011;8922;52.240;20.980;2022-09-13T07:29:23;11.30;;;9.13;;
17606;SDS011;8922;52.240;20.980;2022-09-13T07:31:50;10.83;;;8.80;;
17606;SDS011;8922;52.240;20.980;2022-09-13T07:34:20;12.93;;;7.97;;
17606;SDS011;8922;52.240;20.980;2022-09-13T07:36:47;10.53;;;7.37;;
17606;SDS011;8922;52.240;20.980;2022-09-13T07:39:17;11.53;;;7.90;;
17606;SDS011;8922;52.240;20.980;2022-09-13T07:41:44;9.23;;;7.27;;
17606;SDS011;8922;52.240;20.980;2022-09-13T07:44:12;8.87;;;7.17;;
17606;SDS011;8922;52.240;20.980;2022-09-13T07:46:39;6.77;;;6.00;;
17606;SDS011;8922;52.240;20.980;2022-09-13T07:49:08;7.33;;;6.40;;
17606;SDS011;8922;52.240;20.980;2022-09-13T07:51:37;6.88;;;5.60;;
17606;SDS011;8922;52.240;20.980;2022-09-13T07:54:05;7.33;;;5.60;;
17606;SDS011;8922;52.240;20.980;2022-09-13T07:56:37;5.40;;;4.80;;
17606;SDS011;8922;52.240;20.980;2022-09-13T07:59:05;7.45;;;5.10;;
17606;SDS011;8922;52.240;20.980;2022-09-13T08:01:37;7.10;;;4.88;;
17606;SDS011;8922;52.240;20.980;2022-09-13T08:04:06;6.95;;;4.60;;
17606;SDS011;8922;52.240;20.980;2022-09-13T08:06:34;9.57;;;5.38;;
17606;SDS011;8922;52.240;20.980;2022-09-13T08:09:03;15.45;;;7.22;;
17606;SDS011;8922;52.240;20.980;2022-09-13T08:11:31;9.73;;;6.45;;
17606;SDS011;8922;52.240;20.980;2022-09-13T08:14:00;5.95;;;4.47;;
17606;SDS011;8922;52.240;20.980;2022-09-13T08:16:28;7.85;;;5.32;;
17606;SDS011;8922;52.240;20.980;2022-09-13T08:18:55;24.33;;;9.35;;
17606;SDS011;8922;52.240;20.980;2022-09-13T08:21:23;13.25;;;7.20;;
17606;SDS011;8922;52.240;20.980;2022-09-13T08:23:53;6.28;;;4.05;;
17606;SDS011;8922;52.240;20.980;2022-09-13T08:26:23;7.85;;;5.43;;
17606;SDS011;8922;52.240;20.980;2022-09-13T08:28:53;20.70;;;7.28;;
17606;SDS011;8922;52.240;20.980;2022-09-13T08:31:22;8.95;;;3.70;;
17606;SDS011;8922;52.240;20.980;2022-09-13T08:33:49;5.47;;;3.78;;
17606;SDS011;8922;52.240;20.980;2022-09-13T08:36:16;9.60;;;4.50;;
17606;SDS011;8922;52.240;20.980;2022-09-13T08:38:44;4.60;;;3.63;;
17606;SDS011;8922;52.240;20.980;2022-09-13T08:41:26;8.98;;;4.50;;
17606;SDS011;8922;52.240;20.980;2022-09-13T08:44:19;10.88;;;4.07;;
17606;SDS011;8922;52.240;20.980;2022-09-13T08:46:54;8.45;;;4.15;;
17606;SDS011;8922;52.240;20.980;2022-09-13T08:49:25;7.78;;;3.30;;
17606;SDS011;8922;52.240;20.980;2022-09-13T08:51:56;7.72;;;3.67;;
17606;SDS011;8922;52.240;20.980;2022-09-13T08:54:26;3.45;;;2.90;;
17606;SDS011;8922;52.240;20.980;2022-09-13T08:56:54;4.53;;;2.78;;
17606;SDS011;8922;52.240;20.980;2022-09-13T08:59:30;3.20;;;2.10;;
17606;SDS011;8922;52.240;20.980;2022-09-13T09:02:08;3.45;;;2.38;;
17606;SDS011;8922;52.240;20.980;2022-09-13T09:04:45;6.85;;;2.95;;
17606;SDS011;8922;52.240;20.980;2022-09-13T09:07:16;4.57;;;2.00;;
17606;SDS011;8922;52.240;20.980;2022-09-13T09:09:48;4.45;;;1.95;;
17606;SDS011;8922;52.240;20.980;2022-09-13T09:12:19;4.90;;;2.28;;
17606;SDS011;8922;52.240;20.980;2022-09-13T09:14:55;2.38;;;2.05;;
17606;SDS011;8922;52.240;20.980;2022-09-13T09:17:30;4.55;;;2.15;;
17606;SDS011;8922;52.240;20.980;2022-09-13T09:20:07;3.58;;;2.08;;
17606;SDS011;8922;52.240;20.980;2022-09-13T09:22:41;2.15;;;1.95;;
17606;SDS011;8922;52.240;20.980;2022-09-13T09:25:09;4.40;;;2.25;;
17606;SDS011;8922;52.240;20.980;2022-09-13T09:27:37;2.78;;;1.98;;
17606;SDS011;8922;52.240;20.980;2022-09-13T09:30:04;5.00;;;2.15;;
17606;SDS011;8922;52.240;20.980;2022-09-13T09:35:42;4.20;;;1.65;;
17606;SDS011;8922;52.240;20.980;2022-09-13T09:38:26;3.83;;;2.00;;
17606;SDS011;8922;52.240;20.980;2022-09-13T09:41:05;2.22;;;1.80;;
17606;SDS011;8922;52.240;20.980;2022-09-13T09:43:41;3.38;;;1.63;;
17606;SDS011;8922;52.240;20.980;2022-09-13T09:46:13;5.53;;;1.70;;
17606;SDS011;8922;52.240;20.980;2022-09-13T09:48:47;1.70;;;1.40;;
17606;SDS011;8922;52.240;20.980;2022-09-13T09:51:17;2.05;;;1.50;;
17606;SDS011;8922;52.240;20.980;2022-09-13T09:53:47;5.38;;;2.20;;
17606;SDS011;8922;52.240;20.980;2022-09-13T09:56:19;2.80;;;1.75;;
17606;SDS011;8922;52.240;20.980;2022-09-13T09:58:48;3.33;;;1.40;;
17606;SDS011;8922;52.240;20.980;2022-09-13T10:01:18;3.22;;;1.70;;
17606;SDS011;8922;52.240;20.980;2022-09-13T10:03:51;1.83;;;1.50;;
17606;SDS011;8922;52.240;20.980;2022-09-13T10:06:29;2.33;;;1.85;;
17606;SDS011;8922;52.240;20.980;2022-09-13T10:08:58;6.10;;;1.80;;
17606;SDS011;8922;52.240;20.980;2022-09-13T10:11:42;2.63;;;1.60;;
17606;SDS011;8922;52.240;20.980;2022-09-13T10:14:28;2.15;;;1.58;;
17606;SDS011;8922;52.240;20.980;2022-09-13T10:17:03;2.63;;;1.40;;
17606;SDS011;8922;52.240;20.980;2022-09-13T10:19:40;4.75;;;1.40;;
17606;SDS011;8922;52.240;20.980;2022-09-13T10:22:18;2.03;;;1.30;;
17606;SDS011;8922;52.240;20.980;2022-09-13T10:24:45;1.70;;;1.33;;
17606;SDS011;8922;52.240;20.980;2022-09-13T10:27:19;2.03;;;1.52;;
17606;SDS011;8922;52.240;20.980;2022-09-13T10:29:50;5.22;;;1.75;;
17606;SDS011;8922;52.240;20.980;2022-09-13T10:32:20;2.72;;;1.50;;
17606;SDS011;8922;52.240;20.980;2022-09-13T10:34:49;1.88;;;1.42;;
17606;SDS011;8922;52.240;20.980;2022-09-13T10:37:18;1.65;;;1.55;;
17606;SDS011;8922;52.240;20.980;2022-09-13T10:39:51;2.80;;;1.90;;
17606;SDS011;8922;52.240;20.980;2022-09-13T10:42:23;4.47;;;1.77;;
17606;SDS011;8922;52.240;20.980;2022-09-13T10:44:52;1.73;;;1.25;;
17606;SDS011;8922;52.240;20.980;2022-09-13T10:47:21;3.17;;;1.48;;
17606;SDS011;8922;52.240;20.980;2022-09-13T10:49:52;2.28;;;1.63;;
17606;SDS011;8922;52.240;20.980;2022-09-13T10:52:29;1.42;;;1.33;;
17606;SDS011;8922;52.240;20.980;2022-09-13T10:58:13;1.98;;;1.25;;
17606;SDS011;8922;52.240;20.980;2022-09-13T11:00:57;1.70;;;1.17;;
17606;SDS011;8922;52.240;20.980;2022-09-13T11:06:59;2.88;;;1.60;;
17606;SDS011;8922;52.240;20.980;2022-09-13T11:09:38;2.78;;;1.60;;
17606;SDS011;8922;52.240;20.980;2022-09-13T11:12:13;2.10;;;1.33;;
17606;SDS011;8922;52.240;20.980;2022-09-13T11:14:47;2.08;;;1.50;;
17606;SDS011;8922;52.240;20.980;2022-09-13T11:17:30;1.40;;;1.30;;
17606;SDS011;8922;52.240;20.980;2022-09-13T11:20:13;2.42;;;1.60;;
17606;SDS011;8922;52.240;20.980;2022-09-13T11:23:05;3.47;;;1.25;;
17606;SDS011;8922;52.240;20.980;2022-09-13T11:25:55;3.60;;;1.50;;
17606;SDS011;8922;52.240;20.980;2022-09-13T11:28:47;4.80;;;1.35;;
17606;SDS011;8922;52.240;20.980;2022-09-13T11:31:25;2.70;;;1.63;;
17606;SDS011;8922;52.240;20.980;2022-09-13T11:34:05;2.88;;;1.30;;
17606;SDS011;8922;52.240;20.980;2022-09-13T11:36:47;1.70;;;1.55;;
17606;SDS011;8922;52.240;20.980;2022-09-13T11:39:25;5.55;;;1.63;;
17606;SDS011;8922;52.240;20.980;2022-09-13T11:41:59;4.05;;;1.60;;
17606;SDS011;8922;52.240;20.980;2022-09-13T11:44:54;1.63;;;1.45;;
17606;SDS011;8922;52.240;20.980;2022-09-13T11:47:47;1.75;;;1.65;;
17606;SDS011;8922;52.240;20.980;2022-09-13T11:50:27;2.40;;;1.70;;
17606;SDS011;8922;52.240;20.980;2022-09-13T11:53:05;3.83;;;1.80;;
17606;SDS011;8922;52.240;20.980;2022-09-13T11:55:56;3.30;;;1.70;;
17606;SDS011;8922;52.240;20.980;2022-09-13T11:58:27;2.05;;;1.70;;
17606;SDS011;8922;52.240;20.980;2022-09-13T12:00:59;3.67;;;1.95;;
17606;SDS011;8922;52.240;20.980;2022-09-13T12:03:30;3.20;;;2.22;;
17606;SDS011;8922;52.240;20.980;2022-09-13T12:06:04;2.33;;;2.00;;
17606;SDS011;8922;52.240;20.980;2022-09-13T12:08:37;2.10;;;1.88;;
17606;SDS011;8922;52.240;20.980;2022-09-13T12:11:10;2.90;;;1.88;;
17606;SDS011;8922;52.240;20.980;2022-09-13T12:13:43;4.82;;;2.20;;
17606;SDS011;8922;52.240;20.980;2022-09-13T12:16:15;4.80;;;2.22;;
17606;SDS011;8922;52.240;20.980;2022-09-13T12:18:49;4.07;;;2.00;;
17606;SDS011;8922;52.240;20.980;2022-09-13T12:21:20;4.28;;;1.88;;
17606;SDS011;8922;52.240;20.980;2022-09-13T12:23:50;2.15;;;1.92;;
17606;SDS011;8922;52.240;20.980;2022-09-13T12:26:25;3.55;;;2.25;;
17606;SDS011;8922;52.240;20.980;2022-09-13T12:28:56;3.63;;;2.20;;
17606;SDS011;8922;52.240;20.980;2022-09-13T12:31:28;2.10;;;1.98;;
17606;SDS011;8922;52.240;20.980;2022-09-13T12:33:57;2.70;;;2.28;;
17606;SDS011;8922;52.240;20.980;2022-09-13T12:36:38;4.63;;;3.30;;
17606;SDS011;8922;52.240;20.980;2022-09-13T12:42:18;2.83;;;2.35;;
17606;SDS011;8922;52.240;20.980;2022-09-13T12:45:23;3.58;;;2.28;;
17606;SDS011;8922;52.240;20.980;2022-09-13T12:48:07;3.83;;;2.88;;
17606;SDS011;8922;52.240;20.980;2022-09-13T12:50:45;2.58;;;2.28;;
17606;SDS011;8922;52.240;20.980;2022-09-13T12:53:35;3.38;;;2.90;;
17606;SDS011;8922;52.240;20.980;2022-09-13T13:02:23;14.35;;;4.45;;
17606;SDS011;8922;52.240;20.980;2022-09-13T13:04:54;2.97;;;2.38;;
17606;SDS011;8922;52.240;20.980;2022-09-13T13:07:24;4.20;;;2.75;;
17606;SDS011;8922;52.240;20.980;2022-09-13T13:09:54;3.20;;;2.90;;
17606;SDS011;8922;52.240;20.980;2022-09-13T13:12:26;5.22;;;3.10;;
17606;SDS011;8922;52.240;20.980;2022-09-13T13:14:56;3.70;;;2.83;;
17606;SDS011;8922;52.240;20.980;2022-09-13T13:17:35;3.22;;;2.92;;
17606;SDS011;8922;52.240;20.980;2022-09-13T13:23:23;8.55;;;3.30;;
17606;SDS011;8922;52.240;20.980;2022-09-13T13:26:02;7.50;;;2.90;;
17606;SDS011;8922;52.240;20.980;2022-09-13T13:28:53;7.47;;;2.97;;
17606;SDS011;8922;52.240;20.980;2022-09-13T13:31:41;5.30;;;3.08;;
17606;SDS011;8922;52.240;20.980;2022-09-13T13:37:03;3.78;;;3.35;;
17606;SDS011;8922;52.240;20.980;2022-09-13T13:39:32;21.53;;;9.47;;
17606;SDS011;8922;52.240;20.980;2022-09-13T13:42:09;5.15;;;2.90;;
17606;SDS011;8922;52.240;20.980;2022-09-13T13:44:57;11.10;;;5.30;;
17606;SDS011;8922;52.240;20.980;2022-09-13T13:50:34;11.98;;;5.50;;
17606;SDS011;8922;52.240;20.980;2022-09-13T13:53:32;7.18;;;4.03;;
17606;SDS011;8922;52.240;20.980;2022-09-13T13:56:14;4.10;;;3.30;;
17606;SDS011;8922;52.240;20.980;2022-09-13T13:58:45;9.02;;;5.57;;
17606;SDS011;8922;52.240;20.980;2022-09-13T14:01:17;7.78;;;4.07;;
17606;SDS011;8922;52.240;20.980;2022-09-13T14:03:58;7.40;;;3.67;;
17606;SDS011;8922;52.240;20.980;2022-09-13T14:06:47;3.92;;;3.50;;
17606;SDS011;8922;52.240;20.980;2022-09-13T14:09:27;3.80;;;3.17;;
17606;SDS011;8922;52.240;20.980;2022-09-13T14:12:06;4.03;;;3.40;;
17606;SDS011;8922;52.240;20.980;2022-09-13T14:14:45;6.35;;;3.55;;
17606;SDS011;8922;52.240;20.980;2022-09-13T14:17:44;3.58;;;3.28;;
17606;SDS011;8922;52.240;20.980;2022-09-13T14:20:55;5.45;;;3.30;;
17606;SDS011;8922;52.240;20.980;2022-09-13T14:23:23;3.55;;;3.20;;
17606;SDS011;8922;52.240;20.980;2022-09-13T14:25:54;5.60;;;3.67;;
17606;SDS011;8922;52.240;20.980;2022-09-13T14:28:22;3.75;;;3.38;;
17606;SDS011;8922;52.240;20.980;2022-09-13T14:30:53;7.63;;;3.95;;
17606;SDS011;8922;52.240;20.980;2022-09-13T14:33:23;6.22;;;3.35;;
17606;SDS011;8922;52.240;20.980;2022-09-13T14:35:56;4.68;;;3.95;;
17606;SDS011;8922;52.240;20.980;2022-09-13T14:38:25;8.25;;;4.00;;
17606;SDS011;8922;52.240;20.980;2022-09-13T14:40:59;5.35;;;3.60;;
17606;SDS011;8922;52.240;20.980;2022-09-13T14:43:29;5.18;;;3.88;;
17606;SDS011;8922;52.240;20.980;2022-09-13T14:45:59;5.05;;;3.55;;
17606;SDS011;8922;52.240;20.980;2022-09-13T14:48:31;4.40;;;3.88;;
17606;SDS011;8922;52.240;20.980;2022-09-13T14:51:03;4.40;;;3.72;;
17606;SDS011;8922;52.240;20.980;2022-09-13T14:53:37;4.50;;;3.67;;
17606;SDS011;8922;52.240;20.980;2022-09-13T14:56:11;6.05;;;4.20;;
17606;SDS011;8922;52.240;20.980;2022-09-13T14:58:42;4.47;;;4.00;;
17606;SDS011;8922;52.240;20.980;2022-09-13T15:01:13;5.32;;;3.28;;
17606;SDS011;8922;52.240;20.980;2022-09-13T15:03:43;4.63;;;3.53;;
17606;SDS011;8922;52.240;20.980;2022-09-13T15:06:19;6.63;;;3.30;;
17606;SDS011;8922;52.240;20.980;2022-09-13T15:08:48;3.97;;;3.42;;
17606;SDS011;8922;52.240;20.980;2022-09-13T15:11:27;3.47;;;3.17;;
17606;SDS011;8922;52.240;20.980;2022-09-13T15:14:01;4.82;;;3.72;;
17606;SDS011;8922;52.240;20.980;2022-09-13T15:16:29;4.45;;;3.17;;
17606;SDS011;8922;52.240;20.980;2022-09-13T15:19:16;4.68;;;3.80;;
17606;SDS011;8922;52.240;20.980;2022-09-13T15:22:01;4.18;;;3.35;;
17606;SDS011;8922;52.240;20.980;2022-09-13T15:24:30;6.28;;;3.70;;
17606;SDS011;8922;52.240;20.980;2022-09-13T15:27:05;4.78;;;3.72;;
17606;SDS011;8922;52.240;20.980;2022-09-13T15:29:36;4.43;;;3.40;;
17606;SDS011;8922;52.240;20.980;2022-09-13T15:32:03;4.10;;;3.70;;
17606;SDS011;8922;52.240;20.980;2022-09-13T15:34:31;4.47;;;3.58;;
17606;SDS011;8922;52.240;20.980;2022-09-13T15:37:01;4.38;;;3.45;;
17606;SDS011;8922;52.240;20.980;2022-09-13T15:39:41;7.00;;;4.03;;
17606;SDS011;8922;52.240;20.980;2022-09-13T15:42:10;6.13;;;3.38;;
17606;SDS011;8922;52.240;20.980;2022-09-13T15:44:37;4.10;;;3.70;;